Weather History for Cheraw, SC

Change the Weather History Date:

Sunday, February 3, 2013

  Actual Average (KFLO) Record (KFLO)
Temperature  
Mean Temperature 44 °F 46 °F  
Max Temperature 55 °F 57 °F 85 °F (1989)
Min Temperature 32 °F 36 °F 19 °F (1980)
Degree Days  
Heating Degree Days 22 19  
Month to date heating degree days 57  
Since 1 July heating degree days 1659  
Cooling Degree Days 0 0  
Month to date cooling degree days 0  
Year to date cooling degree days 2  
Moisture  
Dew Point 30 °F    
Average Humidity 66    
Maximum Humidity 100    
Minimum Humidity 33    
Precipitation  
Precipitation 0.00 in 0.10 in 1.30 in (1959)
Month to date precipitation 0.31  
Year to date precipitation 3.54  
Sea Level Pressure  
Sea Level Pressure 29.97 in    
Wind  
Wind Speed 9 mph (West)    
Max Wind Speed 37 mph    
Max Gust Speed 46 mph    
Visibility 10 miles    
Events      
T = Trace of Precipitation, MM = Missing Value Source: NWS Daily Summary

Daily Weather History Graph

Daily Weather History Graph

Search for Another Location

Airport:

Trip Planner

Search our weather history database for the weather conditions in past years. The results will help you decide how hot, cold, wet, or windy it might be!

Date:

Astronomy

Feb. 03, 2013 Rise Set
Actual Time 7:16 AM EST 5:51 PM EST
Civil Twilight 6:50 AM EST 6:17 PM EST
Nautical Twilight 6:19 AM EST 6:47 PM EST
Astronomical Twilight 5:50 AM EST 7:17 PM EST
Moon 12:41 AM EST (2/3) 11:28 AM EST (2/3)
Length of Visible Light 11h 27m
Length of Day
10h 35m
Waning Gibbous, 49% of the Moon is Illuminated
Feb 3
Waning Gibbous
Feb 10
New
Feb 17
First Quarter
Feb 25
Full
Mar 4
Last Quarter

Hourly Weather History & Observations

Time (EST) Temp. Windchill Dew Point Humidity Pressure Visibility Wind Dir Wind Speed Gust Speed Precip Events Conditions
12:15 AM 37.4 °F 34.9 °F 35.6 °F 93% 30.05 in 10.0 mi WSW 3.5 mph - N/A   Clear
12:35 AM 37.4 °F - 35.6 °F 93% 30.05 in 10.0 mi Calm Calm - N/A   Partly Cloudy
12:55 AM 37.4 °F - 35.6 °F 93% 30.04 in 10.0 mi Calm Calm - N/A   Scattered Clouds
1:15 AM 35.6 °F 30.7 °F 35.6 °F 100% 30.03 in 10.0 mi SW 5.8 mph - N/A   Partly Cloudy
1:35 AM 35.6 °F 29.2 °F 35.6 °F 100% 30.02 in 10.0 mi WSW 8.1 mph - N/A   Clear
1:55 AM 35.6 °F - 33.8 °F 93% 30.01 in 10.0 mi Calm Calm - N/A   Clear
2:15 AM 35.6 °F 32.8 °F 33.8 °F 93% 30.01 in 10.0 mi SW 3.5 mph - N/A   Clear
2:35 AM 35.6 °F 32.8 °F 33.8 °F 93% 30.00 in 10.0 mi SSW 3.5 mph - N/A   Partly Cloudy
2:55 AM 33.8 °F - 32.0 °F 93% 29.99 in 10.0 mi Calm Calm - N/A   Clear
3:15 AM 33.8 °F - 33.8 °F 100% 29.99 in 10.0 mi Calm Calm - N/A   Clear
3:35 AM 33.8 °F - 33.8 °F 100% 29.98 in 10.0 mi Calm Calm - N/A   Clear
3:55 AM 32.0 °F - 32.0 °F 100% 29.97 in 9.0 mi Calm Calm - N/A   Clear
4:15 AM 32.0 °F 25.6 °F 32.0 °F 100% 29.96 in 10.0 mi SW 6.9 mph - N/A   Clear
4:35 AM 32.0 °F 24.8 °F 32.0 °F 100% 29.95 in 10.0 mi SW 8.1 mph - N/A   Clear
5:15 AM 32.0 °F 23.6 °F 32.0 °F 100% 29.96 in 10.0 mi WSW 10.4 mph - N/A   Clear
5:35 AM 33.8 °F 27.7 °F 33.8 °F 100% 29.96 in 10.0 mi WSW 6.9 mph - N/A   Clear
5:55 AM 33.8 °F 28.6 °F 33.8 °F 100% 29.97 in 10.0 mi WSW 5.8 mph - N/A   Clear
6:15 AM 32.0 °F - 32.0 °F 100% 29.97 in 9.0 mi Calm Calm - N/A   Clear
6:35 AM 32.0 °F - 32.0 °F 100% 29.98 in 2.0 mi Calm Calm - N/A   Clear
7:15 AM 32.0 °F 24.2 °F 32.0 °F 100% 29.99 in 6.0 mi SW 9.2 mph - N/A   Clear
7:35 AM 32.0 °F 23.6 °F 32.0 °F 100% 29.99 in 9.0 mi SW 10.4 mph - N/A   Clear
7:55 AM 33.8 °F 25.8 °F 33.8 °F 100% 29.99 in 9.0 mi SW 10.4 mph - N/A   Clear
8:15 AM 33.8 °F 25.3 °F 33.8 °F 100% 30.00 in 9.0 mi SW 11.5 mph - N/A   Clear
8:35 AM 35.6 °F 27.1 °F 35.6 °F 100% 29.99 in 10.0 mi SW 12.7 mph - N/A   Clear
8:55 AM 37.4 °F 28.5 °F 35.6 °F 93% 30.00 in 10.0 mi WSW 15.0 mph 19.6 mph N/A   Clear
9:15 AM 39.2 °F 31.6 °F 35.6 °F 87% 30.00 in 10.0 mi West 12.7 mph 21.9 mph N/A   Clear
9:35 AM 42.8 °F 37.0 °F 33.8 °F 70% 30.00 in 10.0 mi WNW 10.4 mph 23.0 mph N/A   Clear
9:55 AM 42.8 °F 36.6 °F 30.2 °F 61% 30.01 in 10.0 mi WNW 11.5 mph 32.2 mph N/A   Clear
10:15 AM 44.6 °F 36.6 °F 28.4 °F 53% 29.99 in 10.0 mi West 19.6 mph 31.1 mph N/A   Clear
10:35 AM 46.4 °F 39.5 °F 28.4 °F 50% 29.99 in 10.0 mi West 17.3 mph 24.2 mph N/A   Clear
10:55 AM 46.4 °F 39.2 °F 28.4 °F 50% 29.98 in 10.0 mi WSW 18.4 mph 27.6 mph N/A   Clear
11:15 AM 48.2 °F - 28.4 °F 46% 29.98 in 10.0 mi West 21.9 mph 32.2 mph N/A   Clear
11:35 AM 48.2 °F - 28.4 °F 46% 29.97 in 10.0 mi SW 26.5 mph 40.3 mph N/A   Clear
11:55 AM 50.0 °F - 28.4 °F 43% 29.95 in 10.0 mi SW 18.4 mph 44.9 mph N/A   Clear
12:15 PM 51.8 °F - 28.4 °F 41% 29.93 in 10.0 mi SW 24.2 mph 44.9 mph N/A   Clear
12:35 PM 53.6 °F - 30.2 °F 41% 29.92 in 10.0 mi WSW 35.7 mph 44.9 mph N/A   Clear
12:55 PM 51.8 °F - 28.4 °F 41% 29.91 in 10.0 mi WSW 26.5 mph 36.8 mph N/A   Clear
1:15 PM 51.8 °F - 30.2 °F 44% 29.90 in 10.0 mi West 15.0 mph 36.8 mph N/A   Mostly Cloudy
1:35 PM 51.8 °F - 30.2 °F 44% 29.89 in 10.0 mi West 18.4 mph 35.7 mph N/A   Mostly Cloudy
1:55 PM 51.8 °F - 28.4 °F 41% 29.89 in 10.0 mi West 25.3 mph 44.9 mph N/A   Scattered Clouds
2:15 PM 55.4 °F - 28.4 °F 36% 29.88 in 10.0 mi West 23.0 mph 41.4 mph N/A   Scattered Clouds
2:35 PM 53.6 °F - 28.4 °F 38% 29.88 in 10.0 mi West 24.2 mph 38.0 mph N/A   Mostly Cloudy
2:55 PM 53.6 °F - 28.4 °F 38% 29.88 in 10.0 mi West 17.3 mph 39.1 mph N/A   Scattered Clouds
3:15 PM 55.4 °F - 28.4 °F 36% 29.87 in 10.0 mi West 36.8 mph 46.0 mph N/A   Partly Cloudy
3:35 PM 55.4 °F - 26.6 °F 33% 29.89 in 10.0 mi West 26.5 mph 41.4 mph N/A   Clear
3:55 PM 55.4 °F - 28.4 °F 36% 29.89 in 10.0 mi West 27.6 mph 34.5 mph N/A   Partly Cloudy
4:15 PM 53.6 °F - 26.6 °F 35% 29.89 in 10.0 mi WNW 20.7 mph 42.6 mph N/A   Scattered Clouds
4:35 PM 53.6 °F - 26.6 °F 35% 29.89 in 10.0 mi West 16.1 mph 28.8 mph N/A   Scattered Clouds
4:55 PM 53.6 °F - 28.4 °F 38% 29.90 in 10.0 mi West 15.0 mph 29.9 mph N/A   Partly Cloudy
5:15 PM 53.6 °F - 28.4 °F 38% 29.90 in 10.0 mi West 12.7 mph 39.1 mph N/A   Scattered Clouds
5:55 PM 50.0 °F - 28.4 °F 43% 29.92 in 10.0 mi West 15.0 mph - N/A   Partly Cloudy
6:15 PM 48.2 °F - 30.2 °F 50% 29.93 in 10.0 mi West 8.1 mph 18.4 mph N/A   Clear
6:35 PM 48.2 °F - 30.2 °F 50% 29.93 in 10.0 mi West 5.8 mph - N/A   Clear
6:55 PM 46.4 °F 42.9 °F 30.2 °F 53% 29.94 in 10.0 mi SW 6.9 mph - N/A   Partly Cloudy
7:15 PM 44.6 °F - 30.2 °F 57% 29.94 in 10.0 mi Calm Calm - N/A   Scattered Clouds
7:35 PM 44.6 °F 41.4 °F 30.2 °F 57% 29.95 in 10.0 mi WNW 5.8 mph - N/A   Mostly Cloudy
7:55 PM 44.6 °F 39.2 °F 30.2 °F 57% 29.97 in 10.0 mi NW 10.4 mph 17.3 mph N/A   Mostly Cloudy
8:15 PM 46.4 °F 41.5 °F 28.4 °F 50% 29.97 in 10.0 mi NNW 10.4 mph 19.6 mph N/A   Scattered Clouds
8:35 PM 44.6 °F 38.4 °F 26.6 °F 49% 29.98 in 10.0 mi NW 12.7 mph 26.5 mph N/A   Clear
8:55 PM 44.6 °F 38.8 °F 24.8 °F 46% 29.99 in 10.0 mi NW 11.5 mph - N/A   Clear
9:15 PM 44.6 °F 38.8 °F 23.0 °F 43% 30.00 in 10.0 mi NNW 11.5 mph 25.3 mph N/A   Clear
9:35 PM 42.8 °F 36.2 °F 23.0 °F 46% 30.01 in 10.0 mi NW 12.7 mph 18.4 mph N/A   Clear
9:55 PM 42.8 °F 36.2 °F 23.0 °F 46% 30.01 in 10.0 mi NW 12.7 mph 18.4 mph N/A   Clear
10:15 PM 41.0 °F 35.8 °F 21.2 °F 45% 30.01 in 10.0 mi NW 8.1 mph 16.1 mph N/A   Clear
10:55 PM 39.2 °F 35.0 °F 21.2 °F 49% 30.01 in 10.0 mi WNW 5.8 mph - N/A   Clear
11:15 PM 39.2 °F - 21.2 °F 49% 30.01 in 10.0 mi Calm Calm - N/A   Clear
11:35 PM 37.4 °F 33.8 °F 23.0 °F 56% 30.01 in 10.0 mi NW 4.6 mph - N/A   Clear
11:55 PM 39.2 °F 34.2 °F 21.2 °F 49% 30.02 in 10.0 mi WNW 6.9 mph - N/A   Clear